createdAt,value
2019-03-15T00:01:45.382Z,11.33
2019-03-15T00:04:17.957Z,12.03
2019-03-15T00:06:50.648Z,13.03
2019-03-15T00:09:25.867Z,12.43
2019-03-15T00:11:58.368Z,13.10
2019-03-15T00:14:30.838Z,12.93
2019-03-15T00:17:03.308Z,12.75
2019-03-15T00:19:35.787Z,12.10
2019-03-15T00:22:08.251Z,11.40
2019-03-15T00:24:41.710Z,11.22
2019-03-15T00:27:14.226Z,9.75
2019-03-15T00:29:48.998Z,10.20
2019-03-15T00:32:22.388Z,11.15
2019-03-15T00:34:54.927Z,13.08
2019-03-15T00:37:27.418Z,10.63
2019-03-15T00:39:59.619Z,12.88
2019-03-15T00:45:03.167Z,12.80
2019-03-15T00:47:35.377Z,9.90
2019-03-15T00:52:39.124Z,8.90
2019-03-15T00:55:11.698Z,9.38
2019-03-15T00:57:44.052Z,7.78
2019-03-15T01:00:16.788Z,7.87
2019-03-15T01:02:49.188Z,7.83
2019-03-15T01:05:21.637Z,8.98
2019-03-15T01:07:53.977Z,7.72
2019-03-15T01:10:26.398Z,8.83
2019-03-15T01:12:58.988Z,7.83
2019-03-15T01:15:31.508Z,9.25
2019-03-15T01:18:03.718Z,8.90
2019-03-15T01:20:36.317Z,7.67
2019-03-15T01:23:08.823Z,7.62
2019-03-15T01:25:41.139Z,7.87
2019-03-15T01:28:13.843Z,9.33
2019-03-15T01:30:46.238Z,6.55
2019-03-15T01:33:18.618Z,7.90
2019-03-15T01:35:51.088Z,8.45
2019-03-15T01:38:23.368Z,8.60
2019-03-15T01:43:26.938Z,7.00
2019-03-15T01:45:59.358Z,9.60
2019-03-15T01:48:31.936Z,10.10
2019-03-15T01:51:05.452Z,10.30
2019-03-15T01:53:37.830Z,8.68
2019-03-15T01:56:10.237Z,10.13
2019-03-15T01:58:42.738Z,10.00
2019-03-15T02:01:15.188Z,10.15
2019-03-15T02:03:47.488Z,9.85
2019-03-15T02:08:50.948Z,11.93
2019-03-15T02:11:23.530Z,10.10
2019-03-15T02:13:56.017Z,11.12
2019-03-15T02:16:28.609Z,11.78
2019-03-15T02:19:01.078Z,10.98
2019-03-15T02:21:34.528Z,10.08
2019-03-15T02:24:06.930Z,9.63
2019-03-15T02:26:39.269Z,11.03
2019-03-15T02:29:11.818Z,10.70
2019-03-15T02:31:44.269Z,9.30
2019-03-15T02:34:16.759Z,8.70
2019-03-15T02:36:49.178Z,9.20
2019-03-15T02:39:22.088Z,9.63
2019-03-15T02:41:54.642Z,10.65
2019-03-15T02:44:26.910Z,9.98
2019-03-15T02:46:59.515Z,11.20
2019-03-15T02:49:31.861Z,8.73
2019-03-15T02:52:04.741Z,8.55
2019-03-15T02:54:37.258Z,7.37
2019-03-15T02:57:10.447Z,7.28
2019-03-15T03:02:13.687Z,7.17
2019-03-15T03:07:17.429Z,7.33
2019-03-15T03:09:49.995Z,8.03
2019-03-15T03:12:22.422Z,7.50
2019-03-15T03:14:55.238Z,7.50
2019-03-15T03:17:27.700Z,8.00
2019-03-15T03:20:00.908Z,9.45
2019-03-15T03:22:35.291Z,8.13
2019-03-15T03:25:08.590Z,6.75
2019-03-15T03:27:40.904Z,5.50
2019-03-15T03:30:16.493Z,7.92
2019-03-15T03:32:47.718Z,6.92
2019-03-15T03:35:20.230Z,8.40
2019-03-15T03:37:52.777Z,9.40
2019-03-15T03:40:25.209Z,9.28
2019-03-15T03:42:57.710Z,10.13
2019-03-15T03:45:30.059Z,9.45
2019-03-15T03:48:02.328Z,10.60
2019-03-15T03:53:05.598Z,9.05
2019-03-15T03:55:37.907Z,8.23
2019-03-15T03:58:10.559Z,9.20
2019-03-15T04:00:43.028Z,7.85
2019-03-15T04:03:15.538Z,7.90
2019-03-15T04:05:48.088Z,6.92
2019-03-15T04:08:20.458Z,7.97
2019-03-15T04:10:52.808Z,9.18
2019-03-15T04:13:25.488Z,8.65
2019-03-15T04:15:57.951Z,7.92
2019-03-15T04:18:30.408Z,9.73
2019-03-15T04:21:03.047Z,10.00
2019-03-15T04:23:37.995Z,7.62
2019-03-15T04:26:09.758Z,8.40
2019-03-15T04:28:42.049Z,6.37
2019-03-15T04:31:15.557Z,7.92
2019-03-15T04:33:48.021Z,5.10
2019-03-15T04:36:20.547Z,6.22
2019-03-15T04:38:52.828Z,6.20
2019-03-15T04:41:25.298Z,7.37
2019-03-15T04:43:58.688Z,7.97
2019-03-15T04:46:32.698Z,6.90
2019-03-15T04:49:05.228Z,7.00
2019-03-15T04:51:37.648Z,5.97
2019-03-15T04:54:10.008Z,5.92
2019-03-15T04:56:42.999Z,5.45
2019-03-15T04:59:15.578Z,7.60
2019-03-15T05:01:47.888Z,5.30
2019-03-15T05:04:20.919Z,7.03
2019-03-15T05:06:53.389Z,6.83
2019-03-15T05:09:25.772Z,7.87
2019-03-15T05:11:58.197Z,7.80
2019-03-15T05:14:30.558Z,8.53
2019-03-15T05:17:02.981Z,8.45
2019-03-15T05:19:35.458Z,8.10
2019-03-15T05:22:07.820Z,7.08
2019-03-15T05:24:40.813Z,7.75
2019-03-15T05:27:13.338Z,7.62
2019-03-15T05:29:45.983Z,7.45
2019-03-15T05:32:18.559Z,8.78
2019-03-15T05:34:51.078Z,9.50
2019-03-15T05:37:23.523Z,8.85
2019-03-15T05:39:55.959Z,11.00
2019-03-15T05:44:59.578Z,11.22
2019-03-15T05:47:32.168Z,10.98
2019-03-15T05:50:04.938Z,10.50
2019-03-15T05:52:37.486Z,10.65
2019-03-15T05:55:11.311Z,9.80
2019-03-15T05:57:44.923Z,8.80
2019-03-15T06:00:17.450Z,10.05
2019-03-15T06:02:51.093Z,6.60
2019-03-15T06:05:23.418Z,8.33
2019-03-15T06:07:55.908Z,8.85
2019-03-15T06:10:28.223Z,8.45
2019-03-15T06:13:00.873Z,9.85
2019-03-15T06:15:33.329Z,8.75
2019-03-15T06:18:06.944Z,7.62
2019-03-15T06:20:39.528Z,7.78
2019-03-15T06:23:11.929Z,5.33
2019-03-15T06:25:44.368Z,7.65
2019-03-15T06:28:16.708Z,6.87
2019-03-15T06:30:49.789Z,6.05
2019-03-15T06:33:22.281Z,8.03
2019-03-15T06:35:55.028Z,7.90
2019-03-15T06:38:28.499Z,8.13
2019-03-15T06:41:01.028Z,9.58
2019-03-15T06:43:33.308Z,8.25
2019-03-15T06:48:37.190Z,8.35
2019-03-15T06:51:09.639Z,18.32
2019-03-15T06:53:42.098Z,8.70
2019-03-15T06:56:14.638Z,9.20
2019-03-15T06:58:47.128Z,8.38
2019-03-15T07:01:19.484Z,8.63
2019-03-15T07:03:52.012Z,9.05
2019-03-15T07:06:24.346Z,10.05
2019-03-15T07:08:56.887Z,10.53
2019-03-15T07:11:29.488Z,14.00
2019-03-15T07:14:01.938Z,12.10
2019-03-15T07:16:37.958Z,8.75
2019-03-15T07:19:09.018Z,9.88
2019-03-15T07:21:41.528Z,9.05
2019-03-15T07:24:24.394Z,7.42
2019-03-15T07:26:48.441Z,7.83
2019-03-15T07:29:21.219Z,7.78
2019-03-15T07:31:54.138Z,8.95
2019-03-15T07:34:26.658Z,12.82
2019-03-15T07:36:59.188Z,6.72
2019-03-15T07:39:31.728Z,8.15
2019-03-15T07:42:04.348Z,7.53
2019-03-15T07:44:36.798Z,6.42
2019-03-15T07:47:09.212Z,6.25
2019-03-15T07:49:42.100Z,6.67
2019-03-15T07:52:14.568Z,6.72
2019-03-15T07:54:46.893Z,6.08
2019-03-15T07:57:19.387Z,7.00
2019-03-15T07:59:51.911Z,6.95
2019-03-15T08:02:24.789Z,9.58
2019-03-15T08:04:57.108Z,8.45
2019-03-15T08:07:36.171Z,8.48
2019-03-15T08:10:03.725Z,9.10
2019-03-15T08:12:38.709Z,9.43
2019-03-15T08:15:10.729Z,9.95
2019-03-15T08:17:43.169Z,8.55
2019-03-15T08:20:15.851Z,9.00
2019-03-15T08:22:48.203Z,12.10
2019-03-15T08:25:21.647Z,11.90
2019-03-15T08:27:54.047Z,9.58
2019-03-15T08:30:26.496Z,11.83
2019-03-15T08:33:09.597Z,12.30
2019-03-15T08:35:33.208Z,10.78
2019-03-15T08:38:05.703Z,10.43
2019-03-15T08:40:38.278Z,9.20
2019-03-15T08:43:10.717Z,10.15
2019-03-15T08:45:43.194Z,9.83
2019-03-15T08:48:15.608Z,7.97
2019-03-15T08:50:48.068Z,8.23
2019-03-15T08:53:21.258Z,10.48
2019-03-15T08:55:53.598Z,16.65
2019-03-15T08:58:26.017Z,13.90
2019-03-15T09:00:58.534Z,12.82
2019-03-15T09:03:34.158Z,12.13
2019-03-15T09:06:05.098Z,15.75
2019-03-15T09:08:37.729Z,9.75
2019-03-15T09:11:11.289Z,9.45
2019-03-15T09:13:43.537Z,7.00
2019-03-15T09:16:15.929Z,8.18
2019-03-15T09:18:48.403Z,8.60
2019-03-15T09:21:20.930Z,8.25
2019-03-15T09:23:53.748Z,8.38
2019-03-15T09:26:26.388Z,8.35
2019-03-15T09:28:58.907Z,7.53
2019-03-15T09:31:46.410Z,9.43
2019-03-15T09:34:05.668Z,8.75
2019-03-15T09:36:49.388Z,8.63
2019-03-15T09:39:12.267Z,9.60
2019-03-15T09:44:15.738Z,7.28
2019-03-15T09:46:48.020Z,9.70
2019-03-15T09:49:20.778Z,10.05
2019-03-15T09:51:53.007Z,9.00
2019-03-15T09:54:26.283Z,11.15
2019-03-15T09:56:58.918Z,11.25
2019-03-15T09:59:31.572Z,11.78
2019-03-15T10:02:07.601Z,12.10
2019-03-15T10:04:38.478Z,10.15
2019-03-15T10:07:11.077Z,11.35
2019-03-15T10:09:46.170Z,10.70
2019-03-15T10:12:17.659Z,11.40
2019-03-15T10:14:50.721Z,11.05
2019-03-15T10:17:23.274Z,10.00
2019-03-15T10:19:56.799Z,10.65
2019-03-15T10:22:29.367Z,10.32
2019-03-15T10:25:01.919Z,9.18
2019-03-15T10:27:34.599Z,9.70
2019-03-15T10:30:08.058Z,9.13
2019-03-15T10:32:41.216Z,8.88
2019-03-15T10:35:13.942Z,8.78
2019-03-15T10:49:17.258Z,35.68
2019-03-15T10:51:49.798Z,17.62
2019-03-15T10:54:22.418Z,11.30
2019-03-15T10:56:54.932Z,15.23
2019-03-15T10:59:27.518Z,9.98
2019-03-15T11:01:59.989Z,6.72
2019-03-15T11:04:33.419Z,6.35
2019-03-15T11:07:05.979Z,4.90
2019-03-15T11:09:38.508Z,6.72
2019-03-15T11:12:11.278Z,6.83
2019-03-15T11:14:43.823Z,4.87
2019-03-15T11:17:16.348Z,5.40
2019-03-15T11:19:48.781Z,6.70
2019-03-15T11:22:21.367Z,6.15
2019-03-15T11:24:53.901Z,5.95
2019-03-15T11:27:26.568Z,8.18
2019-03-15T11:29:59.138Z,6.03
2019-03-15T11:32:31.518Z,6.53
2019-03-15T11:35:04.225Z,7.35
2019-03-15T11:37:36.693Z,8.70
2019-03-15T11:40:09.807Z,5.22
2019-03-15T11:42:42.219Z,5.78
2019-03-15T11:45:14.711Z,6.35
2019-03-15T11:48:02.596Z,5.72
2019-03-15T11:50:21.340Z,7.28
2019-03-15T11:52:53.749Z,7.97
2019-03-15T11:55:26.332Z,6.87
2019-03-15T11:57:59.109Z,5.92
2019-03-15T12:00:31.676Z,8.00
2019-03-15T12:03:04.156Z,5.67
2019-03-15T12:05:36.730Z,6.87
2019-03-15T12:08:09.260Z,5.08
2019-03-15T12:10:41.649Z,5.28
2019-03-15T12:13:14.077Z,4.25
2019-03-15T12:15:46.508Z,3.72
2019-03-15T12:18:19.131Z,3.98
2019-03-15T12:20:51.478Z,4.65
2019-03-15T12:25:54.809Z,3.95
2019-03-15T12:28:28.703Z,3.35
2019-03-15T12:31:02.008Z,10.08
2019-03-15T12:33:34.596Z,4.70
2019-03-15T12:36:07.138Z,4.33
2019-03-15T12:38:39.659Z,3.70
2019-03-15T12:41:12.218Z,3.75
2019-03-15T12:43:45.748Z,4.30
2019-03-15T12:46:18.148Z,5.72
2019-03-15T12:48:50.608Z,6.37
2019-03-15T12:51:32.106Z,5.55
2019-03-15T12:53:57.238Z,19.37
2019-03-15T12:56:29.679Z,8.20
2019-03-15T12:59:02.150Z,6.53
2019-03-15T13:01:35.709Z,9.78
2019-03-15T13:04:08.088Z,7.80
2019-03-15T13:06:40.507Z,10.58
2019-03-15T13:09:13.069Z,8.43
2019-03-15T13:11:45.889Z,8.05
2019-03-15T13:14:18.368Z,7.15
2019-03-15T13:16:50.802Z,9.78
2019-03-15T13:19:23.268Z,7.42
2019-03-15T13:21:55.709Z,9.43
2019-03-15T13:24:30.528Z,9.68
2019-03-15T13:27:07.670Z,8.60
2019-03-15T13:29:37.407Z,7.67
2019-03-15T13:32:10.208Z,5.75
2019-03-15T13:34:42.814Z,5.87
2019-03-15T13:37:15.448Z,6.37
2019-03-15T13:39:47.958Z,5.85
2019-03-15T13:42:20.458Z,6.45
2019-03-15T13:44:55.272Z,5.72
2019-03-15T13:47:27.568Z,5.60
2019-03-15T13:52:31.278Z,7.67
2019-03-15T13:55:03.859Z,6.92
2019-03-15T13:57:37.448Z,5.62
2019-03-15T14:00:11.008Z,6.55
2019-03-15T14:02:43.588Z,5.10
2019-03-15T14:05:16.103Z,7.70
2019-03-15T14:07:48.746Z,5.08
2019-03-15T14:10:21.298Z,6.67
2019-03-15T14:12:53.849Z,5.62
2019-03-15T14:15:26.509Z,9.05
2019-03-15T14:17:59.188Z,7.00
2019-03-15T14:20:31.744Z,10.55
2019-03-15T14:23:04.150Z,10.55
2019-03-15T14:25:36.703Z,9.80
2019-03-15T14:28:09.409Z,8.78
2019-03-15T14:30:43.008Z,7.00
2019-03-15T14:33:15.585Z,6.53
2019-03-15T14:35:48.288Z,5.28
2019-03-15T14:38:21.781Z,5.55
2019-03-15T14:40:54.443Z,6.00
2019-03-15T14:43:27.037Z,5.90
2019-03-15T14:45:59.600Z,6.58
2019-03-15T14:48:32.268Z,7.67
2019-03-15T14:51:04.858Z,6.87
2019-03-15T14:53:37.792Z,5.85
2019-03-15T14:56:10.389Z,5.40
2019-03-15T14:58:42.956Z,6.15
2019-03-15T15:01:15.598Z,5.12
2019-03-15T15:03:48.069Z,5.83
2019-03-15T15:06:20.601Z,5.17
2019-03-15T15:08:53.148Z,5.78
2019-03-15T15:11:25.836Z,5.08
2019-03-15T15:13:58.767Z,6.75
2019-03-15T15:16:31.370Z,6.65
2019-03-15T15:19:04.009Z,6.22
2019-03-15T15:21:36.758Z,5.42
2019-03-15T15:24:09.573Z,6.83
2019-03-15T15:26:42.058Z,5.35
2019-03-15T15:29:15.338Z,6.97
2019-03-15T15:31:47.700Z,6.53
2019-03-15T15:34:21.089Z,6.97
2019-03-15T15:36:53.838Z,6.87
2019-03-15T15:39:26.531Z,7.83
2019-03-15T15:41:58.932Z,7.78
2019-03-15T15:44:32.648Z,7.47
2019-03-15T15:47:05.138Z,7.55
2019-03-15T15:49:38.403Z,7.78
2019-03-15T15:52:10.948Z,7.25
2019-03-15T15:54:44.048Z,5.87
2019-03-15T15:57:16.408Z,7.72
2019-03-15T16:02:19.888Z,7.60
2019-03-15T16:04:52.555Z,6.35
2019-03-15T16:07:25.002Z,6.53
2019-03-15T16:09:57.588Z,7.62
2019-03-15T16:12:29.986Z,5.58
2019-03-15T16:15:02.481Z,6.30
2019-03-15T16:17:34.927Z,4.90
2019-03-15T16:20:08.178Z,5.33
2019-03-15T16:22:41.107Z,4.50
2019-03-15T16:25:13.617Z,4.62
2019-03-15T16:27:46.158Z,5.22
2019-03-15T16:30:18.710Z,5.00
2019-03-15T16:32:51.037Z,3.45
2019-03-15T16:35:24.179Z,4.87
2019-03-15T16:37:56.638Z,5.08
2019-03-15T16:40:29.329Z,4.33
2019-03-15T16:43:01.978Z,5.22
2019-03-15T16:45:34.369Z,3.83
2019-03-15T16:48:06.818Z,3.95
2019-03-15T16:50:39.469Z,4.70
2019-03-15T16:53:12.000Z,3.52
2019-03-15T16:55:44.538Z,3.55
2019-03-15T16:58:17.004Z,4.12
2019-03-15T17:00:50.445Z,3.27
2019-03-15T17:03:24.108Z,4.65
2019-03-15T17:05:56.648Z,4.75
2019-03-15T17:08:29.308Z,4.17
2019-03-15T17:11:01.868Z,4.47
2019-03-15T17:13:34.267Z,3.90
2019-03-15T17:16:06.832Z,4.53
2019-03-15T17:18:39.368Z,3.65
2019-03-15T17:23:43.968Z,3.15
2019-03-15T17:26:16.447Z,4.50
2019-03-15T17:28:58.623Z,4.92
2019-03-15T17:31:23.364Z,5.58
2019-03-15T17:33:55.828Z,6.22
2019-03-15T17:36:28.458Z,6.28
2019-03-15T17:39:01.167Z,5.95
2019-03-15T17:41:35.148Z,6.17
2019-03-15T17:44:07.620Z,6.08
2019-03-15T17:46:40.304Z,6.30
2019-03-15T17:49:13.447Z,7.78
2019-03-15T17:51:46.068Z,7.53
2019-03-15T17:54:18.528Z,6.95
2019-03-15T17:56:51.068Z,6.55
2019-03-15T17:59:23.567Z,7.85
2019-03-15T18:01:57.878Z,6.45
2019-03-15T18:04:30.409Z,9.35
2019-03-15T18:07:03.644Z,8.00
2019-03-15T18:09:36.228Z,8.85
2019-03-15T18:12:08.838Z,8.05
2019-03-15T18:14:41.259Z,9.18
2019-03-15T18:17:13.878Z,10.98
2019-03-15T18:19:46.330Z,10.65
2019-03-15T18:22:18.771Z,10.75
2019-03-15T18:24:51.293Z,10.75
2019-03-15T18:27:23.657Z,11.40
2019-03-15T18:29:56.323Z,10.53
2019-03-15T18:32:28.778Z,11.25
2019-03-15T18:35:01.519Z,12.30
2019-03-15T18:37:34.021Z,11.70
2019-03-15T18:40:09.328Z,11.03
2019-03-15T18:42:42.287Z,12.40
2019-03-15T18:45:15.229Z,12.40
2019-03-15T18:47:47.797Z,13.40
2019-03-15T18:50:22.017Z,13.98
2019-03-15T18:52:54.550Z,15.08
2019-03-15T18:55:27.095Z,16.00
2019-03-15T18:58:00.637Z,15.55
2019-03-15T19:00:34.168Z,14.85
2019-03-15T19:03:06.601Z,14.65
2019-03-15T19:05:39.096Z,17.95
2019-03-15T19:08:11.548Z,16.27
2019-03-15T19:10:44.277Z,16.23
2019-03-15T19:13:16.867Z,15.70
2019-03-15T19:15:49.438Z,15.98
2019-03-15T19:18:22.298Z,16.80
2019-03-15T19:20:54.937Z,18.62
2019-03-15T19:23:28.658Z,17.85
2019-03-15T19:26:01.038Z,17.02
2019-03-15T19:28:33.652Z,16.95
2019-03-15T19:31:15.107Z,16.97
2019-03-15T19:33:47.872Z,15.10
2019-03-15T19:36:20.447Z,17.27
2019-03-15T19:38:53.088Z,13.55
2019-03-15T19:41:25.758Z,14.95
2019-03-15T19:43:58.748Z,15.72
2019-03-15T19:46:31.357Z,15.75
2019-03-15T19:49:05.069Z,15.30
2019-03-15T19:51:37.568Z,15.35
2019-03-15T19:54:10.347Z,15.93
2019-03-15T19:56:43.038Z,13.35
2019-03-15T19:59:16.348Z,17.30
2019-03-15T20:01:49.088Z,15.20
2019-03-15T20:04:22.257Z,14.00
2019-03-15T20:06:56.291Z,15.25
2019-03-15T20:09:29.029Z,18.45
2019-03-15T20:12:01.617Z,16.90
2019-03-15T20:14:34.280Z,13.83
2019-03-15T20:17:06.911Z,14.63
2019-03-15T20:19:39.559Z,14.45
2019-03-15T20:22:13.737Z,13.88
2019-03-15T20:24:46.118Z,13.60
2019-03-15T20:27:19.591Z,15.13
2019-03-15T20:29:53.207Z,13.60
2019-03-15T20:32:26.827Z,13.85
2019-03-15T20:34:59.687Z,18.77
2019-03-15T20:37:32.904Z,13.83
2019-03-15T20:40:06.760Z,13.25
2019-03-15T20:42:42.694Z,12.30
2019-03-15T20:45:17.047Z,11.00
2019-03-15T20:47:51.088Z,12.15
2019-03-15T20:50:24.045Z,12.90
2019-03-15T20:53:07.822Z,13.43
2019-03-15T20:55:34.942Z,10.18
2019-03-15T20:58:08.730Z,10.40
2019-03-15T21:00:42.151Z,9.23
2019-03-15T21:03:14.986Z,9.63
2019-03-15T21:05:48.340Z,10.72
2019-03-15T21:08:20.941Z,10.88
2019-03-15T21:10:53.675Z,11.88
2019-03-15T21:13:27.547Z,11.55
2019-03-15T21:16:00.006Z,12.10
2019-03-15T21:18:33.187Z,12.88
2019-03-15T21:21:05.868Z,13.70
2019-03-15T21:23:39.278Z,13.25
2019-03-15T21:26:11.757Z,13.78
2019-03-15T21:28:44.427Z,12.93
2019-03-15T21:31:17.000Z,13.58
2019-03-15T21:33:49.488Z,13.15
2019-03-15T21:36:22.048Z,12.68
2019-03-15T21:38:54.547Z,12.05
2019-03-15T21:41:27.257Z,11.78
2019-03-15T21:43:59.977Z,12.98
2019-03-15T21:46:32.627Z,13.43
2019-03-15T21:49:05.475Z,13.03
2019-03-15T21:51:37.948Z,12.90
2019-03-15T21:54:10.689Z,12.20
2019-03-15T21:56:43.332Z,11.10
2019-03-15T21:59:15.777Z,13.40
2019-03-15T22:01:49.430Z,11.53
2019-03-15T22:04:26.427Z,13.03
2019-03-15T22:06:58.937Z,13.55
2019-03-15T22:09:31.450Z,13.95
2019-03-15T22:12:03.847Z,13.80
2019-03-15T22:14:36.257Z,14.38
2019-03-15T22:17:08.578Z,12.37
2019-03-15T22:19:41.150Z,13.43
2019-03-15T22:22:13.750Z,11.38
2019-03-15T22:24:46.087Z,12.10
2019-03-15T22:27:18.611Z,11.08
2019-03-15T22:29:53.633Z,12.25
2019-03-15T22:32:25.477Z,12.75
2019-03-15T22:34:57.926Z,10.65
2019-03-15T22:37:30.768Z,10.65
2019-03-15T22:40:03.378Z,11.90
2019-03-15T22:42:35.796Z,9.58
2019-03-15T22:45:08.412Z,10.45
2019-03-15T22:47:40.885Z,10.18
2019-03-15T22:50:13.479Z,9.60
2019-03-15T22:52:45.748Z,8.78
2019-03-15T22:55:18.288Z,9.45
2019-03-15T22:57:59.934Z,9.03
2019-03-15T23:00:30.622Z,9.85
2019-03-15T23:03:04.900Z,9.43
2019-03-15T23:05:37.713Z,8.95
2019-03-15T23:08:10.489Z,9.38
2019-03-15T23:10:43.058Z,9.00
2019-03-15T23:13:15.829Z,9.78
2019-03-15T23:15:48.338Z,10.08
2019-03-15T23:18:20.767Z,9.03
2019-03-15T23:20:53.209Z,9.08
2019-03-15T23:23:25.553Z,10.15
2019-03-15T23:25:58.038Z,11.00
2019-03-15T23:28:31.667Z,11.08
2019-03-15T23:31:04.780Z,12.05
2019-03-15T23:33:37.277Z,9.50
2019-03-15T23:36:10.537Z,9.08
2019-03-15T23:38:43.139Z,9.10
2019-03-15T23:41:15.719Z,7.80
2019-03-15T23:43:49.488Z,13.18
2019-03-15T23:46:22.208Z,7.28
2019-03-15T23:48:54.668Z,9.80
2019-03-15T23:51:27.100Z,8.10
2019-03-15T23:53:59.488Z,9.15
2019-03-15T23:56:32.267Z,9.50
2019-03-15T23:59:04.648Z,8.23
